KHCD

Hutchinson Municipal-Butler Field Airport

Hutchinson, Minnesota, USA
METAR KHCD 220955Z AUTO 00000KT 1 1/2SM BR VV007 12/12 A3002 RMK AO2 T01170115
Observed Flight Rules
May-22 @ 09:55 UTC (8 minutes ago) Instrument Flight Rules
Visibility Clouds Conditions
1 1/2 miles
  • Vertical visibility at 700' AGL
  • Mist
Temperatures Readings
Current 12°C / 54°F
Dewpoint 12°C / 54°F
Humidity 100%
Altimeter 30.02" Hg
Pressure 1017 hPa
Elevation 323
METAR KHCD 220955Z AUTO 00000KT 1 1/2SM BR VV007 12/12 A3002 RMK AO2 T01170115
Observed Flight Rules
May-22 @ 09:55 UTC
(8 minutes ago)
LIFR
Clouds
  • Vertical visibility at 700' AGL
Conditions
  • Mist
Temperature Dewpoint
12°C / 54°F 12°C / 54°F
Humidity Altimeter Pressure
100% 30.02" Hg 1017 hPa